sensor_id;sensor_type;location;lat;lon;timestamp;P1;durP1;ratioP1;P2;durP2;ratioP2
69256;SDS011;56376;53.356;-1.748;2022-09-09T00:00:37;5.07;;;4.00;;
69256;SDS011;56376;53.356;-1.748;2022-09-09T00:03:12;5.15;;;4.38;;
69256;SDS011;56376;53.356;-1.748;2022-09-09T00:05:44;5.00;;;3.97;;
69256;SDS011;56376;53.356;-1.748;2022-09-09T00:09:02;5.80;;;3.60;;
69256;SDS011;56376;53.356;-1.748;2022-09-09T00:11:46;5.05;;;4.20;;
69256;SDS011;56376;53.356;-1.748;2022-09-09T00:20:21;4.43;;;4.03;;
69256;SDS011;56376;53.356;-1.748;2022-09-09T00:22:57;4.97;;;3.58;;
69256;SDS011;56376;53.356;-1.748;2022-09-09T00:25:45;5.03;;;4.20;;
69256;SDS011;56376;53.356;-1.748;2022-09-09T00:28:16;5.05;;;4.13;;
69256;SDS011;56376;53.356;-1.748;2022-09-09T00:30:44;7.45;;;4.20;;
69256;SDS011;56376;53.356;-1.748;2022-09-09T00:33:13;4.75;;;4.35;;
69256;SDS011;56376;53.356;-1.748;2022-09-09T00:35:45;6.05;;;4.90;;
69256;SDS011;56376;53.356;-1.748;2022-09-09T00:38:34;5.18;;;4.47;;
69256;SDS011;56376;53.356;-1.748;2022-09-09T00:41:24;7.50;;;5.57;;
69256;SDS011;56376;53.356;-1.748;2022-09-09T00:44:07;4.97;;;4.47;;
69256;SDS011;56376;53.356;-1.748;2022-09-09T00:55:08;5.82;;;4.50;;
69256;SDS011;56376;53.356;-1.748;2022-09-09T00:57:36;5.00;;;4.05;;
69256;SDS011;56376;53.356;-1.748;2022-09-09T01:05:39;4.90;;;4.38;;
69256;SDS011;56376;53.356;-1.748;2022-09-09T01:08:11;5.38;;;4.50;;
69256;SDS011;56376;53.356;-1.748;2022-09-09T01:10:58;4.93;;;4.43;;
69256;SDS011;56376;53.356;-1.748;2022-09-09T01:15:52;5.53;;;4.15;;
69256;SDS011;56376;53.356;-1.748;2022-09-09T01:18:23;6.35;;;5.60;;
69256;SDS011;56376;53.356;-1.748;2022-09-09T01:21:02;6.35;;;5.18;;
69256;SDS011;56376;53.356;-1.748;2022-09-09T01:26:30;7.22;;;5.63;;
69256;SDS011;56376;53.356;-1.748;2022-09-09T01:29:00;5.38;;;4.88;;
69256;SDS011;56376;53.356;-1.748;2022-09-09T01:31:28;6.18;;;4.90;;
69256;SDS011;56376;53.356;-1.748;2022-09-09T01:33:57;5.80;;;5.20;;
69256;SDS011;56376;53.356;-1.748;2022-09-09T01:36:28;6.43;;;4.85;;
69256;SDS011;56376;53.356;-1.748;2022-09-09T01:39:00;6.07;;;5.20;;
69256;SDS011;56376;53.356;-1.748;2022-09-09T01:41:26;5.50;;;4.65;;
69256;SDS011;56376;53.356;-1.748;2022-09-09T01:43:53;6.18;;;4.75;;
69256;SDS011;56376;53.356;-1.748;2022-09-09T01:46:20;5.75;;;4.55;;
69256;SDS011;56376;53.356;-1.748;2022-09-09T01:48:47;6.00;;;5.40;;
69256;SDS011;56376;53.356;-1.748;2022-09-09T01:51:14;8.13;;;5.80;;
69256;SDS011;56376;53.356;-1.748;2022-09-09T01:53:39;6.97;;;6.13;;
69256;SDS011;56376;53.356;-1.748;2022-09-09T02:07:07;7.45;;;5.72;;
69256;SDS011;56376;53.356;-1.748;2022-09-09T02:09:50;8.63;;;6.57;;
69256;SDS011;56376;53.356;-1.748;2022-09-09T02:12:26;6.38;;;5.45;;
69256;SDS011;56376;53.356;-1.748;2022-09-09T02:14:56;7.78;;;6.55;;
69256;SDS011;56376;53.356;-1.748;2022-09-09T02:17:31;7.57;;;6.60;;
69256;SDS011;56376;53.356;-1.748;2022-09-09T02:20:08;8.43;;;7.00;;
69256;SDS011;56376;53.356;-1.748;2022-09-09T02:22:37;7.70;;;5.95;;
69256;SDS011;56376;53.356;-1.748;2022-09-09T02:25:08;7.45;;;6.45;;
69256;SDS011;56376;53.356;-1.748;2022-09-09T02:27:37;6.55;;;5.35;;
69256;SDS011;56376;53.356;-1.748;2022-09-09T02:30:03;7.70;;;6.13;;
69256;SDS011;56376;53.356;-1.748;2022-09-09T02:32:29;8.43;;;6.45;;
69256;SDS011;56376;53.356;-1.748;2022-09-09T02:34:58;7.03;;;6.32;;
69256;SDS011;56376;53.356;-1.748;2022-09-09T02:37:28;7.45;;;6.10;;
69256;SDS011;56376;53.356;-1.748;2022-09-09T02:40:00;7.72;;;5.85;;
69256;SDS011;56376;53.356;-1.748;2022-09-09T02:42:27;6.50;;;5.22;;
69256;SDS011;56376;53.356;-1.748;2022-09-09T02:44:53;6.50;;;5.40;;
69256;SDS011;56376;53.356;-1.748;2022-09-09T02:47:35;5.90;;;5.30;;
69256;SDS011;56376;53.356;-1.748;2022-09-09T02:50:17;6.28;;;5.43;;
69256;SDS011;56376;53.356;-1.748;2022-09-09T02:55:17;6.57;;;5.80;;
69256;SDS011;56376;53.356;-1.748;2022-09-09T02:58:05;6.25;;;5.63;;
69256;SDS011;56376;53.356;-1.748;2022-09-09T03:00:33;7.78;;;6.95;;
69256;SDS011;56376;53.356;-1.748;2022-09-09T03:03:01;7.43;;;6.05;;
69256;SDS011;56376;53.356;-1.748;2022-09-09T03:05:29;7.30;;;6.15;;
69256;SDS011;56376;53.356;-1.748;2022-09-09T03:07:54;7.85;;;6.47;;
69256;SDS011;56376;53.356;-1.748;2022-09-09T03:10:20;7.07;;;6.35;;
69256;SDS011;56376;53.356;-1.748;2022-09-09T03:12:45;7.22;;;6.47;;
69256;SDS011;56376;53.356;-1.748;2022-09-09T03:15:10;7.15;;;6.45;;
69256;SDS011;56376;53.356;-1.748;2022-09-09T03:17:36;7.43;;;6.53;;
69256;SDS011;56376;53.356;-1.748;2022-09-09T03:20:03;8.02;;;6.57;;
69256;SDS011;56376;53.356;-1.748;2022-09-09T03:22:29;7.53;;;6.65;;
69256;SDS011;56376;53.356;-1.748;2022-09-09T03:24:54;7.93;;;6.72;;
69256;SDS011;56376;53.356;-1.748;2022-09-09T03:27:20;8.52;;;6.63;;
69256;SDS011;56376;53.356;-1.748;2022-09-09T03:29:45;7.72;;;7.03;;
69256;SDS011;56376;53.356;-1.748;2022-09-09T03:32:12;8.65;;;6.78;;
69256;SDS011;56376;53.356;-1.748;2022-09-09T03:34:37;7.75;;;6.68;;
69256;SDS011;56376;53.356;-1.748;2022-09-09T03:37:05;8.70;;;7.28;;
69256;SDS011;56376;53.356;-1.748;2022-09-09T03:39:31;8.82;;;7.00;;
69256;SDS011;56376;53.356;-1.748;2022-09-09T03:41:56;8.18;;;7.07;;
69256;SDS011;56376;53.356;-1.748;2022-09-09T03:44:22;9.02;;;7.93;;
69256;SDS011;56376;53.356;-1.748;2022-09-09T03:46:47;10.18;;;7.88;;
69256;SDS011;56376;53.356;-1.748;2022-09-09T03:49:13;8.52;;;6.82;;
69256;SDS011;56376;53.356;-1.748;2022-09-09T03:51:38;7.40;;;6.55;;
69256;SDS011;56376;53.356;-1.748;2022-09-09T03:54:05;7.07;;;6.15;;
69256;SDS011;56376;53.356;-1.748;2022-09-09T03:56:33;7.43;;;6.60;;
69256;SDS011;56376;53.356;-1.748;2022-09-09T03:58:59;7.47;;;6.57;;
69256;SDS011;56376;53.356;-1.748;2022-09-09T04:01:24;7.28;;;6.57;;
69256;SDS011;56376;53.356;-1.748;2022-09-09T04:03:49;8.88;;;7.55;;
69256;SDS011;56376;53.356;-1.748;2022-09-09T04:06:15;8.10;;;6.93;;
69256;SDS011;56376;53.356;-1.748;2022-09-09T04:08:42;8.23;;;7.05;;
69256;SDS011;56376;53.356;-1.748;2022-09-09T04:11:07;8.55;;;7.65;;
69256;SDS011;56376;53.356;-1.748;2022-09-09T04:13:33;7.18;;;6.40;;
69256;SDS011;56376;53.356;-1.748;2022-09-09T04:16:01;8.13;;;6.97;;
69256;SDS011;56376;53.356;-1.748;2022-09-09T04:18:28;9.40;;;7.25;;
69256;SDS011;56376;53.356;-1.748;2022-09-09T04:20:54;9.73;;;7.55;;
69256;SDS011;56376;53.356;-1.748;2022-09-09T04:23:22;8.73;;;7.47;;
69256;SDS011;56376;53.356;-1.748;2022-09-09T04:25:52;8.63;;;7.72;;
69256;SDS011;56376;53.356;-1.748;2022-09-09T04:28:19;7.97;;;6.78;;
69256;SDS011;56376;53.356;-1.748;2022-09-09T04:30:47;7.65;;;6.82;;
69256;SDS011;56376;53.356;-1.748;2022-09-09T04:33:13;9.23;;;7.53;;
69256;SDS011;56376;53.356;-1.748;2022-09-09T04:35:39;9.52;;;7.78;;
69256;SDS011;56376;53.356;-1.748;2022-09-09T04:38:09;8.65;;;7.75;;
69256;SDS011;56376;53.356;-1.748;2022-09-09T04:40:35;10.90;;;7.95;;
69256;SDS011;56376;53.356;-1.748;2022-09-09T04:43:01;10.00;;;7.88;;
69256;SDS011;56376;53.356;-1.748;2022-09-09T04:45:29;8.98;;;8.05;;
69256;SDS011;56376;53.356;-1.748;2022-09-09T04:47:55;8.57;;;7.70;;
69256;SDS011;56376;53.356;-1.748;2022-09-09T04:50:21;8.52;;;7.63;;
69256;SDS011;56376;53.356;-1.748;2022-09-09T04:52:47;8.38;;;7.47;;
69256;SDS011;56376;53.356;-1.748;2022-09-09T04:55:12;9.60;;;8.05;;
69256;SDS011;56376;53.356;-1.748;2022-09-09T04:57:38;7.90;;;7.10;;
69256;SDS011;56376;53.356;-1.748;2022-09-09T05:00:04;9.23;;;7.88;;
69256;SDS011;56376;53.356;-1.748;2022-09-09T05:02:30;7.97;;;7.18;;
69256;SDS011;56376;53.356;-1.748;2022-09-09T05:04:57;9.23;;;7.78;;
69256;SDS011;56376;53.356;-1.748;2022-09-09T05:07:23;8.57;;;7.60;;
69256;SDS011;56376;53.356;-1.748;2022-09-09T05:09:49;8.00;;;6.95;;
69256;SDS011;56376;53.356;-1.748;2022-09-09T05:12:15;9.45;;;8.15;;
69256;SDS011;56376;53.356;-1.748;2022-09-09T05:14:42;8.88;;;7.63;;
69256;SDS011;56376;53.356;-1.748;2022-09-09T05:17:07;8.10;;;7.25;;
69256;SDS011;56376;53.356;-1.748;2022-09-09T05:19:33;8.90;;;7.68;;
69256;SDS011;56376;53.356;-1.748;2022-09-09T05:21:58;8.63;;;7.47;;
69256;SDS011;56376;53.356;-1.748;2022-09-09T05:24:24;10.65;;;7.57;;
69256;SDS011;56376;53.356;-1.748;2022-09-09T05:26:49;8.27;;;7.18;;
69256;SDS011;56376;53.356;-1.748;2022-09-09T05:29:14;8.50;;;7.60;;
69256;SDS011;56376;53.356;-1.748;2022-09-09T05:31:44;7.70;;;7.00;;
69256;SDS011;56376;53.356;-1.748;2022-09-09T05:34:10;8.20;;;7.30;;
69256;SDS011;56376;53.356;-1.748;2022-09-09T05:36:36;8.75;;;7.70;;
69256;SDS011;56376;53.356;-1.748;2022-09-09T05:39:01;8.65;;;7.60;;
69256;SDS011;56376;53.356;-1.748;2022-09-09T05:41:27;8.60;;;7.60;;
69256;SDS011;56376;53.356;-1.748;2022-09-09T05:43:53;9.85;;;7.78;;
69256;SDS011;56376;53.356;-1.748;2022-09-09T05:46:20;7.45;;;6.68;;
69256;SDS011;56376;53.356;-1.748;2022-09-09T05:48:47;7.03;;;6.32;;
69256;SDS011;56376;53.356;-1.748;2022-09-09T05:51:17;7.93;;;7.13;;
69256;SDS011;56376;53.356;-1.748;2022-09-09T05:53:45;7.82;;;7.03;;
69256;SDS011;56376;53.356;-1.748;2022-09-09T05:56:15;9.00;;;7.55;;
69256;SDS011;56376;53.356;-1.748;2022-09-09T05:58:58;7.53;;;6.65;;
69256;SDS011;56376;53.356;-1.748;2022-09-09T06:01:26;7.45;;;6.60;;
69256;SDS011;56376;53.356;-1.748;2022-09-09T06:03:53;7.22;;;6.28;;
69256;SDS011;56376;53.356;-1.748;2022-09-09T06:06:20;6.80;;;6.18;;
69256;SDS011;56376;53.356;-1.748;2022-09-09T06:08:47;7.75;;;6.68;;
69256;SDS011;56376;53.356;-1.748;2022-09-09T06:11:19;6.95;;;6.25;;
69256;SDS011;56376;53.356;-1.748;2022-09-09T06:13:46;6.30;;;5.70;;
69256;SDS011;56376;53.356;-1.748;2022-09-09T06:16:14;7.00;;;6.07;;
69256;SDS011;56376;53.356;-1.748;2022-09-09T06:18:41;6.50;;;5.43;;
69256;SDS011;56376;53.356;-1.748;2022-09-09T06:21:09;6.55;;;5.85;;
69256;SDS011;56376;53.356;-1.748;2022-09-09T06:23:40;5.82;;;5.13;;
69256;SDS011;56376;53.356;-1.748;2022-09-09T06:26:10;6.07;;;5.47;;
69256;SDS011;56376;53.356;-1.748;2022-09-09T06:28:37;5.53;;;4.90;;
69256;SDS011;56376;53.356;-1.748;2022-09-09T06:31:07;8.32;;;5.90;;
69256;SDS011;56376;53.356;-1.748;2022-09-09T06:33:35;9.50;;;6.60;;
69256;SDS011;56376;53.356;-1.748;2022-09-09T06:36:03;8.88;;;7.32;;
69256;SDS011;56376;53.356;-1.748;2022-09-09T06:38:29;7.95;;;6.65;;
69256;SDS011;56376;53.356;-1.748;2022-09-09T06:40:55;6.60;;;6.00;;
69256;SDS011;56376;53.356;-1.748;2022-09-09T06:43:23;6.93;;;5.95;;
69256;SDS011;56376;53.356;-1.748;2022-09-09T06:45:53;7.43;;;6.10;;
69256;SDS011;56376;53.356;-1.748;2022-09-09T06:48:23;7.28;;;6.25;;
69256;SDS011;56376;53.356;-1.748;2022-09-09T06:50:48;5.97;;;5.38;;
69256;SDS011;56376;53.356;-1.748;2022-09-09T06:53:17;6.78;;;6.07;;
69256;SDS011;56376;53.356;-1.748;2022-09-09T06:55:44;7.28;;;6.28;;
69256;SDS011;56376;53.356;-1.748;2022-09-09T06:58:10;6.82;;;6.13;;
69256;SDS011;56376;53.356;-1.748;2022-09-09T07:00:35;8.90;;;7.03;;
69256;SDS011;56376;53.356;-1.748;2022-09-09T07:03:03;8.55;;;6.88;;
69256;SDS011;56376;53.356;-1.748;2022-09-09T07:05:29;7.22;;;6.22;;
69256;SDS011;56376;53.356;-1.748;2022-09-09T07:07:54;7.68;;;6.63;;
69256;SDS011;56376;53.356;-1.748;2022-09-09T07:10:20;7.60;;;6.63;;
69256;SDS011;56376;53.356;-1.748;2022-09-09T07:12:49;6.20;;;5.60;;
69256;SDS011;56376;53.356;-1.748;2022-09-09T07:15:17;9.40;;;8.20;;
69256;SDS011;56376;53.356;-1.748;2022-09-09T07:17:43;9.15;;;7.65;;
69256;SDS011;56376;53.356;-1.748;2022-09-09T07:20:09;9.02;;;6.90;;
69256;SDS011;56376;53.356;-1.748;2022-09-09T07:22:35;10.05;;;7.90;;
69256;SDS011;56376;53.356;-1.748;2022-09-09T07:25:00;8.35;;;7.45;;
69256;SDS011;56376;53.356;-1.748;2022-09-09T07:27:27;8.30;;;7.40;;
69256;SDS011;56376;53.356;-1.748;2022-09-09T07:29:52;11.48;;;9.43;;
69256;SDS011;56376;53.356;-1.748;2022-09-09T07:32:19;11.57;;;9.32;;
69256;SDS011;56376;53.356;-1.748;2022-09-09T07:34:45;12.68;;;9.90;;
69256;SDS011;56376;53.356;-1.748;2022-09-09T07:37:11;10.98;;;8.90;;
69256;SDS011;56376;53.356;-1.748;2022-09-09T07:39:38;9.95;;;8.85;;
69256;SDS011;56376;53.356;-1.748;2022-09-09T07:42:04;10.40;;;8.13;;
69256;SDS011;56376;53.356;-1.748;2022-09-09T07:44:30;12.00;;;9.68;;
69256;SDS011;56376;53.356;-1.748;2022-09-09T07:46:59;14.27;;;9.48;;
69256;SDS011;56376;53.356;-1.748;2022-09-09T07:49:25;10.55;;;9.38;;
69256;SDS011;56376;53.356;-1.748;2022-09-09T07:51:50;15.52;;;11.38;;
69256;SDS011;56376;53.356;-1.748;2022-09-09T07:54:17;12.23;;;9.88;;
69256;SDS011;56376;53.356;-1.748;2022-09-09T07:56:48;13.63;;;10.75;;
69256;SDS011;56376;53.356;-1.748;2022-09-09T07:59:15;10.95;;;9.45;;
69256;SDS011;56376;53.356;-1.748;2022-09-09T08:01:42;9.82;;;8.52;;
69256;SDS011;56376;53.356;-1.748;2022-09-09T08:04:14;11.50;;;9.70;;
69256;SDS011;56376;53.356;-1.748;2022-09-09T08:06:43;11.13;;;9.25;;
69256;SDS011;56376;53.356;-1.748;2022-09-09T08:09:13;12.95;;;10.07;;
69256;SDS011;56376;53.356;-1.748;2022-09-09T08:11:39;10.30;;;8.98;;
69256;SDS011;56376;53.356;-1.748;2022-09-09T08:14:06;8.88;;;8.00;;
69256;SDS011;56376;53.356;-1.748;2022-09-09T08:16:33;8.75;;;7.85;;
69256;SDS011;56376;53.356;-1.748;2022-09-09T08:19:02;9.60;;;8.07;;
69256;SDS011;56376;53.356;-1.748;2022-09-09T08:21:29;9.30;;;8.30;;
69256;SDS011;56376;53.356;-1.748;2022-09-09T08:23:57;9.63;;;8.70;;
69256;SDS011;56376;53.356;-1.748;2022-09-09T08:26:25;8.18;;;7.35;;
69256;SDS011;56376;53.356;-1.748;2022-09-09T08:28:53;8.25;;;7.43;;
69256;SDS011;56376;53.356;-1.748;2022-09-09T08:31:25;9.63;;;8.23;;
69256;SDS011;56376;53.356;-1.748;2022-09-09T08:33:53;8.40;;;6.85;;
69256;SDS011;56376;53.356;-1.748;2022-09-09T08:36:20;10.23;;;9.00;;
69256;SDS011;56376;53.356;-1.748;2022-09-09T08:38:49;9.48;;;8.45;;
69256;SDS011;56376;53.356;-1.748;2022-09-09T08:52:15;10.10;;;8.50;;
69256;SDS011;56376;53.356;-1.748;2022-09-09T08:54:44;10.38;;;7.00;;
69256;SDS011;56376;53.356;-1.748;2022-09-09T08:57:13;10.73;;;7.32;;
69256;SDS011;56376;53.356;-1.748;2022-09-09T08:59:43;11.07;;;7.82;;
69256;SDS011;56376;53.356;-1.748;2022-09-09T09:02:22;7.20;;;5.75;;
69256;SDS011;56376;53.356;-1.748;2022-09-09T09:05:03;8.30;;;6.63;;
69256;SDS011;56376;53.356;-1.748;2022-09-09T09:10:47;6.88;;;5.95;;
69256;SDS011;56376;53.356;-1.748;2022-09-09T09:15:54;5.00;;;4.50;;
69256;SDS011;56376;53.356;-1.748;2022-09-09T09:18:27;5.78;;;4.65;;
69256;SDS011;56376;53.356;-1.748;2022-09-09T09:21:11;7.75;;;4.50;;
69256;SDS011;56376;53.356;-1.748;2022-09-09T09:23:45;6.57;;;4.35;;
69256;SDS011;56376;53.356;-1.748;2022-09-09T09:26:19;4.47;;;4.07;;
69256;SDS011;56376;53.356;-1.748;2022-09-09T09:28:47;6.20;;;3.97;;
69256;SDS011;56376;53.356;-1.748;2022-09-09T09:31:12;5.68;;;3.60;;
69256;SDS011;56376;53.356;-1.748;2022-09-09T09:36:11;5.93;;;3.30;;
69256;SDS011;56376;53.356;-1.748;2022-09-09T09:38:40;4.68;;;3.05;;
69256;SDS011;56376;53.356;-1.748;2022-09-09T09:41:35;6.22;;;2.47;;
69256;SDS011;56376;53.356;-1.748;2022-09-09T09:44:03;2.88;;;2.13;;
69256;SDS011;56376;53.356;-1.748;2022-09-09T09:46:31;4.05;;;2.00;;
69256;SDS011;56376;53.356;-1.748;2022-09-09T09:48:58;2.78;;;2.08;;
69256;SDS011;56376;53.356;-1.748;2022-09-09T09:51:29;3.25;;;2.00;;
69256;SDS011;56376;53.356;-1.748;2022-09-09T09:54:08;2.17;;;1.83;;
69256;SDS011;56376;53.356;-1.748;2022-09-09T09:56:38;2.88;;;2.05;;
69256;SDS011;56376;53.356;-1.748;2022-09-09T09:59:05;3.25;;;1.80;;
69256;SDS011;56376;53.356;-1.748;2022-09-09T10:01:31;3.78;;;1.83;;
69256;SDS011;56376;53.356;-1.748;2022-09-09T10:03:59;3.30;;;1.85;;
69256;SDS011;56376;53.356;-1.748;2022-09-09T10:06:31;2.47;;;1.73;;
69256;SDS011;56376;53.356;-1.748;2022-09-09T10:08:58;1.95;;;1.73;;
69256;SDS011;56376;53.356;-1.748;2022-09-09T10:11:34;4.72;;;2.25;;
69256;SDS011;56376;53.356;-1.748;2022-09-09T10:14:13;2.75;;;1.70;;
69256;SDS011;56376;53.356;-1.748;2022-09-09T10:16:48;2.72;;;1.75;;
69256;SDS011;56376;53.356;-1.748;2022-09-09T10:22:04;3.75;;;2.08;;
69256;SDS011;56376;53.356;-1.748;2022-09-09T10:27:27;3.33;;;1.67;;
69256;SDS011;56376;53.356;-1.748;2022-09-09T10:30:18;3.85;;;2.15;;
69256;SDS011;56376;53.356;-1.748;2022-09-09T10:35:34;1.77;;;1.60;;
69256;SDS011;56376;53.356;-1.748;2022-09-09T10:51:33;3.30;;;1.58;;
69256;SDS011;56376;53.356;-1.748;2022-09-09T10:56:42;2.72;;;1.50;;
69256;SDS011;56376;53.356;-1.748;2022-09-09T10:59:17;4.35;;;1.40;;
69256;SDS011;56376;53.356;-1.748;2022-09-09T11:01:48;2.10;;;1.50;;
69256;SDS011;56376;53.356;-1.748;2022-09-09T11:04:25;2.10;;;1.60;;
69256;SDS011;56376;53.356;-1.748;2022-09-09T11:06:57;2.88;;;1.40;;
69256;SDS011;56376;53.356;-1.748;2022-09-09T11:09:31;2.72;;;1.17;;
69256;SDS011;56376;53.356;-1.748;2022-09-09T11:12:01;2.85;;;1.33;;
69256;SDS011;56376;53.356;-1.748;2022-09-09T11:14:52;3.40;;;1.30;;
69256;SDS011;56376;53.356;-1.748;2022-09-09T11:17:23;3.70;;;1.42;;
69256;SDS011;56376;53.356;-1.748;2022-09-09T11:19:55;3.40;;;1.90;;
69256;SDS011;56376;53.356;-1.748;2022-09-09T11:42:16;4.07;;;1.63;;
69256;SDS011;56376;53.356;-1.748;2022-09-09T11:44:48;2.17;;;1.40;;
69256;SDS011;56376;53.356;-1.748;2022-09-09T11:47:21;2.10;;;1.20;;
69256;SDS011;56376;53.356;-1.748;2022-09-09T11:52:40;2.20;;;1.20;;
69256;SDS011;56376;53.356;-1.748;2022-09-09T11:55:29;2.55;;;1.23;;
69256;SDS011;56376;53.356;-1.748;2022-09-09T11:58:19;1.80;;;1.48;;
69256;SDS011;56376;53.356;-1.748;2022-09-09T12:00:47;2.40;;;1.58;;
69256;SDS011;56376;53.356;-1.748;2022-09-09T12:05:58;1.45;;;1.10;;
69256;SDS011;56376;53.356;-1.748;2022-09-09T12:08:28;2.17;;;1.30;;
69256;SDS011;56376;53.356;-1.748;2022-09-09T12:10:55;1.75;;;1.20;;
69256;SDS011;56376;53.356;-1.748;2022-09-09T12:13:23;3.42;;;1.50;;
69256;SDS011;56376;53.356;-1.748;2022-09-09T12:15:57;3.80;;;1.38;;
69256;SDS011;56376;53.356;-1.748;2022-09-09T12:18:33;1.92;;;1.10;;
69256;SDS011;56376;53.356;-1.748;2022-09-09T12:23:52;3.03;;;1.52;;
69256;SDS011;56376;53.356;-1.748;2022-09-09T12:34:28;1.70;;;1.15;;
69256;SDS011;56376;53.356;-1.748;2022-09-09T12:41:59;2.50;;;1.67;;
69256;SDS011;56376;53.356;-1.748;2022-09-09T12:44:25;2.92;;;1.38;;
69256;SDS011;56376;53.356;-1.748;2022-09-09T12:46:53;1.35;;;1.02;;
69256;SDS011;56376;53.356;-1.748;2022-09-09T12:49:31;1.15;;;0.93;;
69256;SDS011;56376;53.356;-1.748;2022-09-09T12:52:13;2.17;;;0.90;;
69256;SDS011;56376;53.356;-1.748;2022-09-09T12:54:55;1.27;;;0.80;;
69256;SDS011;56376;53.356;-1.748;2022-09-09T12:57:22;1.55;;;0.80;;
69256;SDS011;56376;53.356;-1.748;2022-09-09T12:59:50;1.55;;;0.80;;
69256;SDS011;56376;53.356;-1.748;2022-09-09T13:02:18;4.25;;;1.02;;
69256;SDS011;56376;53.356;-1.748;2022-09-09T13:04:46;1.52;;;0.70;;
69256;SDS011;56376;53.356;-1.748;2022-09-09T13:07:12;1.70;;;0.95;;
69256;SDS011;56376;53.356;-1.748;2022-09-09T13:09:38;1.67;;;0.95;;
69256;SDS011;56376;53.356;-1.748;2022-09-09T13:12:04;1.13;;;0.70;;
69256;SDS011;56376;53.356;-1.748;2022-09-09T13:14:35;2.55;;;1.00;;
69256;SDS011;56376;53.356;-1.748;2022-09-09T13:17:05;1.23;;;0.82;;
69256;SDS011;56376;53.356;-1.748;2022-09-09T13:19:38;1.80;;;0.50;;
69256;SDS011;56376;53.356;-1.748;2022-09-09T13:24:58;0.98;;;0.65;;
69256;SDS011;56376;53.356;-1.748;2022-09-09T13:27:54;1.58;;;1.02;;
69256;SDS011;56376;53.356;-1.748;2022-09-09T13:30:25;1.65;;;0.80;;
69256;SDS011;56376;53.356;-1.748;2022-09-09T13:33:17;1.27;;;0.80;;
69256;SDS011;56376;53.356;-1.748;2022-09-09T13:35:49;0.47;;;0.47;;
69256;SDS011;56376;53.356;-1.748;2022-09-09T13:38:15;0.80;;;0.80;;
69256;SDS011;56376;53.356;-1.748;2022-09-09T13:40:57;0.70;;;0.70;;
69256;SDS011;56376;53.356;-1.748;2022-09-09T13:43:34;1.27;;;0.60;;
69256;SDS011;56376;53.356;-1.748;2022-09-09T13:46:03;0.80;;;0.80;;
69256;SDS011;56376;53.356;-1.748;2022-09-09T13:48:31;1.38;;;0.90;;
69256;SDS011;56376;53.356;-1.748;2022-09-09T13:51:01;1.55;;;0.77;;
69256;SDS011;56376;53.356;-1.748;2022-09-09T13:53:31;0.80;;;0.80;;
69256;SDS011;56376;53.356;-1.748;2022-09-09T13:55:57;0.93;;;0.70;;
69256;SDS011;56376;53.356;-1.748;2022-09-09T13:58:23;1.15;;;0.88;;
69256;SDS011;56376;53.356;-1.748;2022-09-09T14:00:50;1.67;;;0.90;;
69256;SDS011;56376;53.356;-1.748;2022-09-09T14:03:17;2.25;;;0.65;;
69256;SDS011;56376;53.356;-1.748;2022-09-09T14:05:44;0.82;;;0.60;;
69256;SDS011;56376;53.356;-1.748;2022-09-09T14:08:12;1.27;;;0.60;;
69256;SDS011;56376;53.356;-1.748;2022-09-09T14:10:41;0.55;;;0.55;;
69256;SDS011;56376;53.356;-1.748;2022-09-09T14:13:06;0.60;;;0.50;;
69256;SDS011;56376;53.356;-1.748;2022-09-09T14:15:33;0.47;;;0.40;;
69256;SDS011;56376;53.356;-1.748;2022-09-09T14:17:58;1.08;;;0.70;;
69256;SDS011;56376;53.356;-1.748;2022-09-09T14:20:24;1.60;;;0.70;;
69256;SDS011;56376;53.356;-1.748;2022-09-09T14:22:49;0.52;;;0.43;;
69256;SDS011;56376;53.356;-1.748;2022-09-09T14:25:14;1.88;;;0.90;;
69256;SDS011;56376;53.356;-1.748;2022-09-09T14:27:40;1.02;;;0.60;;
69256;SDS011;56376;53.356;-1.748;2022-09-09T14:30:07;2.33;;;0.75;;
69256;SDS011;56376;53.356;-1.748;2022-09-09T14:32:34;1.55;;;0.60;;
69256;SDS011;56376;53.356;-1.748;2022-09-09T14:34:59;1.23;;;0.82;;
69256;SDS011;56376;53.356;-1.748;2022-09-09T14:37:25;1.40;;;0.95;;
69256;SDS011;56376;53.356;-1.748;2022-09-09T14:39:52;0.80;;;0.57;;
69256;SDS011;56376;53.356;-1.748;2022-09-09T14:42:18;0.90;;;0.52;;
69256;SDS011;56376;53.356;-1.748;2022-09-09T14:44:44;0.40;;;0.40;;
69256;SDS011;56376;53.356;-1.748;2022-09-09T14:47:09;0.38;;;0.38;;
69256;SDS011;56376;53.356;-1.748;2022-09-09T14:49:35;0.65;;;0.35;;
69256;SDS011;56376;53.356;-1.748;2022-09-09T14:52:01;1.42;;;0.57;;
69256;SDS011;56376;53.356;-1.748;2022-09-09T14:54:27;0.45;;;0.45;;
69256;SDS011;56376;53.356;-1.748;2022-09-09T14:56:53;1.30;;;0.30;;
69256;SDS011;56376;53.356;-1.748;2022-09-09T14:59:18;0.65;;;0.40;;
69256;SDS011;56376;53.356;-1.748;2022-09-09T15:01:44;1.05;;;0.50;;
69256;SDS011;56376;53.356;-1.748;2022-09-09T15:04:10;0.85;;;0.60;;
69256;SDS011;56376;53.356;-1.748;2022-09-09T15:06:37;0.90;;;0.40;;
69256;SDS011;56376;53.356;-1.748;2022-09-09T15:09:04;0.47;;;0.30;;
69256;SDS011;56376;53.356;-1.748;2022-09-09T15:11:33;0.73;;;0.50;;
69256;SDS011;56376;53.356;-1.748;2022-09-09T15:14:02;0.43;;;0.43;;
69256;SDS011;56376;53.356;-1.748;2022-09-09T15:16:29;1.20;;;0.70;;
69256;SDS011;56376;53.356;-1.748;2022-09-09T15:18:55;3.20;;;0.80;;
69256;SDS011;56376;53.356;-1.748;2022-09-09T15:21:23;1.35;;;0.77;;
69256;SDS011;56376;53.356;-1.748;2022-09-09T15:23:50;1.30;;;0.55;;
69256;SDS011;56376;53.356;-1.748;2022-09-09T15:26:16;0.75;;;0.70;;
69256;SDS011;56376;53.356;-1.748;2022-09-09T15:28:43;1.13;;;0.70;;
69256;SDS011;56376;53.356;-1.748;2022-09-09T15:31:13;1.38;;;1.02;;
69256;SDS011;56376;53.356;-1.748;2022-09-09T15:33:46;1.33;;;1.00;;
69256;SDS011;56376;53.356;-1.748;2022-09-09T15:36:17;2.22;;;1.10;;
69256;SDS011;56376;53.356;-1.748;2022-09-09T15:38:50;2.90;;;1.20;;
69256;SDS011;56376;53.356;-1.748;2022-09-09T15:41:17;1.15;;;0.90;;
69256;SDS011;56376;53.356;-1.748;2022-09-09T15:43:44;1.35;;;1.13;;
69256;SDS011;56376;53.356;-1.748;2022-09-09T15:48:53;0.98;;;0.85;;
69256;SDS011;56376;53.356;-1.748;2022-09-09T15:51:19;1.60;;;1.20;;
69256;SDS011;56376;53.356;-1.748;2022-09-09T15:53:45;1.60;;;1.00;;
69256;SDS011;56376;53.356;-1.748;2022-09-09T15:56:11;1.00;;;1.00;;
69256;SDS011;56376;53.356;-1.748;2022-09-09T15:58:36;0.90;;;0.90;;
69256;SDS011;56376;53.356;-1.748;2022-09-09T16:01:03;0.70;;;0.70;;
69256;SDS011;56376;53.356;-1.748;2022-09-09T16:03:30;0.70;;;0.60;;
69256;SDS011;56376;53.356;-1.748;2022-09-09T16:05:59;0.68;;;0.68;;
69256;SDS011;56376;53.356;-1.748;2022-09-09T16:08:24;0.73;;;0.60;;
69256;SDS011;56376;53.356;-1.748;2022-09-09T16:10:50;1.20;;;1.10;;
69256;SDS011;56376;53.356;-1.748;2022-09-09T16:13:15;1.80;;;0.80;;
69256;SDS011;56376;53.356;-1.748;2022-09-09T16:15:41;0.80;;;0.70;;
69256;SDS011;56376;53.356;-1.748;2022-09-09T16:18:07;0.60;;;0.60;;
69256;SDS011;56376;53.356;-1.748;2022-09-09T16:20:32;0.80;;;0.70;;
69256;SDS011;56376;53.356;-1.748;2022-09-09T16:22:58;0.50;;;0.50;;
69256;SDS011;56376;53.356;-1.748;2022-09-09T16:25:23;1.45;;;0.90;;
69256;SDS011;56376;53.356;-1.748;2022-09-09T16:27:49;0.77;;;0.60;;
69256;SDS011;56376;53.356;-1.748;2022-09-09T16:30:14;0.85;;;0.50;;
69256;SDS011;56376;53.356;-1.748;2022-09-09T16:32:40;0.63;;;0.60;;
69256;SDS011;56376;53.356;-1.748;2022-09-09T16:35:05;0.82;;;0.70;;
69256;SDS011;56376;53.356;-1.748;2022-09-09T16:37:31;2.05;;;0.80;;
69256;SDS011;56376;53.356;-1.748;2022-09-09T16:39:59;0.45;;;0.43;;
69256;SDS011;56376;53.356;-1.748;2022-09-09T16:42:24;0.82;;;0.68;;
69256;SDS011;56376;53.356;-1.748;2022-09-09T16:44:49;0.85;;;0.75;;
69256;SDS011;56376;53.356;-1.748;2022-09-09T16:47:15;1.33;;;0.60;;
69256;SDS011;56376;53.356;-1.748;2022-09-09T16:49:40;1.10;;;0.70;;
69256;SDS011;56376;53.356;-1.748;2022-09-09T16:52:06;1.00;;;0.50;;
69256;SDS011;56376;53.356;-1.748;2022-09-09T16:54:31;0.65;;;0.40;;